sensor_id;sensor_type;location;lat;lon;timestamp;P1;durP1;ratioP1;P2;durP2;ratioP2
38083;SDS011;23894;51.466;7.444;2023-05-07T00:01:33;10.00;;;6.60;;
38083;SDS011;23894;51.466;7.444;2023-05-07T00:03:34;8.93;;;6.35;;
38083;SDS011;23894;51.466;7.444;2023-05-07T00:05:39;9.15;;;6.38;;
38083;SDS011;23894;51.466;7.444;2023-05-07T00:07:42;8.52;;;6.40;;
38083;SDS011;23894;51.466;7.444;2023-05-07T00:09:45;9.50;;;6.72;;
38083;SDS011;23894;51.466;7.444;2023-05-07T00:11:48;9.75;;;7.20;;
38083;SDS011;23894;51.466;7.444;2023-05-07T00:13:49;8.70;;;6.75;;
38083;SDS011;23894;51.466;7.444;2023-05-07T00:15:50;9.65;;;6.75;;
38083;SDS011;23894;51.466;7.444;2023-05-07T00:17:51;8.98;;;7.28;;
38083;SDS011;23894;51.466;7.444;2023-05-07T00:19:54;11.07;;;7.23;;
38083;SDS011;23894;51.466;7.444;2023-05-07T00:21:56;10.32;;;7.38;;
38083;SDS011;23894;51.466;7.444;2023-05-07T00:24:00;10.18;;;7.50;;
38083;SDS011;23894;51.466;7.444;2023-05-07T00:26:05;9.82;;;7.43;;
38083;SDS011;23894;51.466;7.444;2023-05-07T00:28:06;9.63;;;7.37;;
38083;SDS011;23894;51.466;7.444;2023-05-07T00:30:07;8.52;;;7.03;;
38083;SDS011;23894;51.466;7.444;2023-05-07T00:32:08;9.43;;;7.53;;
38083;SDS011;23894;51.466;7.444;2023-05-07T00:34:10;9.45;;;7.35;;
38083;SDS011;23894;51.466;7.444;2023-05-07T00:36:11;9.88;;;7.50;;
38083;SDS011;23894;51.466;7.444;2023-05-07T00:38:12;10.77;;;7.82;;
38083;SDS011;23894;51.466;7.444;2023-05-07T00:40:16;11.15;;;7.47;;
38083;SDS011;23894;51.466;7.444;2023-05-07T00:42:18;10.07;;;7.70;;
38083;SDS011;23894;51.466;7.444;2023-05-07T00:44:20;10.30;;;7.73;;
38083;SDS011;23894;51.466;7.444;2023-05-07T00:46:21;10.63;;;7.50;;
38083;SDS011;23894;51.466;7.444;2023-05-07T00:48:23;11.48;;;7.47;;
38083;SDS011;23894;51.466;7.444;2023-05-07T00:50:27;9.75;;;7.60;;
38083;SDS011;23894;51.466;7.444;2023-05-07T00:52:28;10.30;;;7.78;;
38083;SDS011;23894;51.466;7.444;2023-05-07T00:54:30;9.63;;;7.75;;
38083;SDS011;23894;51.466;7.444;2023-05-07T00:56:31;10.95;;;7.93;;
38083;SDS011;23894;51.466;7.444;2023-05-07T00:58:33;9.77;;;7.60;;
38083;SDS011;23894;51.466;7.444;2023-05-07T01:00:34;9.93;;;7.50;;
38083;SDS011;23894;51.466;7.444;2023-05-07T01:02:37;9.25;;;7.20;;
38083;SDS011;23894;51.466;7.444;2023-05-07T01:04:41;10.23;;;6.40;;
38083;SDS011;23894;51.466;7.444;2023-05-07T01:06:44;9.88;;;6.70;;
38083;SDS011;23894;51.466;7.444;2023-05-07T01:08:47;10.55;;;6.60;;
38083;SDS011;23894;51.466;7.444;2023-05-07T01:10:51;9.10;;;6.80;;
38083;SDS011;23894;51.466;7.444;2023-05-07T01:12:57;8.77;;;6.68;;
38083;SDS011;23894;51.466;7.444;2023-05-07T01:15:01;10.82;;;7.38;;
38083;SDS011;23894;51.466;7.444;2023-05-07T01:17:04;9.60;;;7.60;;
38083;SDS011;23894;51.466;7.444;2023-05-07T01:19:07;9.52;;;6.88;;
38083;SDS011;23894;51.466;7.444;2023-05-07T01:21:12;11.45;;;7.03;;
38083;SDS011;23894;51.466;7.444;2023-05-07T01:23:19;9.65;;;7.32;;
38083;SDS011;23894;51.466;7.444;2023-05-07T01:25:21;11.40;;;7.57;;
38083;SDS011;23894;51.466;7.444;2023-05-07T01:27:25;9.73;;;7.70;;
38083;SDS011;23894;51.466;7.444;2023-05-07T01:29:28;9.98;;;7.90;;
38083;SDS011;23894;51.466;7.444;2023-05-07T01:31:29;10.05;;;8.20;;
38083;SDS011;23894;51.466;7.444;2023-05-07T01:33:33;10.90;;;7.95;;
38083;SDS011;23894;51.466;7.444;2023-05-07T01:35:38;11.43;;;8.45;;
38083;SDS011;23894;51.466;7.444;2023-05-07T01:37:40;9.65;;;8.13;;
38083;SDS011;23894;51.466;7.444;2023-05-07T01:39:41;10.93;;;8.03;;
38083;SDS011;23894;51.466;7.444;2023-05-07T01:41:43;10.50;;;8.70;;
38083;SDS011;23894;51.466;7.444;2023-05-07T01:43:44;11.10;;;8.30;;
38083;SDS011;23894;51.466;7.444;2023-05-07T01:45:46;9.85;;;7.10;;
38083;SDS011;23894;51.466;7.444;2023-05-07T01:47:49;9.93;;;7.82;;
38083;SDS011;23894;51.466;7.444;2023-05-07T01:49:52;10.63;;;7.57;;
38083;SDS011;23894;51.466;7.444;2023-05-07T01:51:54;12.00;;;7.53;;
38083;SDS011;23894;51.466;7.444;2023-05-07T01:53:56;9.03;;;7.27;;
38083;SDS011;23894;51.466;7.444;2023-05-07T01:55:57;9.35;;;7.57;;
38083;SDS011;23894;51.466;7.444;2023-05-07T01:58:00;10.80;;;7.95;;
38083;SDS011;23894;51.466;7.444;2023-05-07T02:00:01;9.20;;;7.47;;
38083;SDS011;23894;51.466;7.444;2023-05-07T02:02:05;10.07;;;7.80;;
38083;SDS011;23894;51.466;7.444;2023-05-07T02:04:06;11.05;;;7.78;;
38083;SDS011;23894;51.466;7.444;2023-05-07T02:06:09;9.07;;;7.25;;
38083;SDS011;23894;51.466;7.444;2023-05-07T02:08:12;9.82;;;7.18;;
38083;SDS011;23894;51.466;7.444;2023-05-07T02:10:17;8.25;;;6.72;;
38083;SDS011;23894;51.466;7.444;2023-05-07T02:12:20;9.85;;;6.85;;
38083;SDS011;23894;51.466;7.444;2023-05-07T02:14:22;8.40;;;6.82;;
38083;SDS011;23894;51.466;7.444;2023-05-07T02:16:24;8.93;;;7.05;;
38083;SDS011;23894;51.466;7.444;2023-05-07T02:18:25;10.10;;;7.28;;
38083;SDS011;23894;51.466;7.444;2023-05-07T02:20:26;9.25;;;7.03;;
38083;SDS011;23894;51.466;7.444;2023-05-07T02:22:28;10.32;;;7.80;;
38083;SDS011;23894;51.466;7.444;2023-05-07T02:24:30;8.88;;;7.10;;
38083;SDS011;23894;51.466;7.444;2023-05-07T02:26:31;9.93;;;6.80;;
38083;SDS011;23894;51.466;7.444;2023-05-07T02:28:32;9.43;;;6.82;;
38083;SDS011;23894;51.466;7.444;2023-05-07T02:30:36;9.75;;;7.18;;
38083;SDS011;23894;51.466;7.444;2023-05-07T02:32:37;9.20;;;7.30;;
38083;SDS011;23894;51.466;7.444;2023-05-07T02:34:38;9.90;;;7.28;;
38083;SDS011;23894;51.466;7.444;2023-05-07T02:36:40;9.13;;;6.82;;
38083;SDS011;23894;51.466;7.444;2023-05-07T02:38:41;9.68;;;7.15;;
38083;SDS011;23894;51.466;7.444;2023-05-07T02:40:43;9.55;;;7.20;;
38083;SDS011;23894;51.466;7.444;2023-05-07T02:42:47;9.18;;;7.00;;
38083;SDS011;23894;51.466;7.444;2023-05-07T02:44:49;8.77;;;7.22;;
38083;SDS011;23894;51.466;7.444;2023-05-07T02:46:51;9.48;;;6.85;;
38083;SDS011;23894;51.466;7.444;2023-05-07T02:48:55;10.10;;;7.30;;
38083;SDS011;23894;51.466;7.444;2023-05-07T02:50:56;9.48;;;7.00;;
38083;SDS011;23894;51.466;7.444;2023-05-07T02:52:57;10.90;;;7.40;;
38083;SDS011;23894;51.466;7.444;2023-05-07T02:55:00;8.80;;;6.85;;
38083;SDS011;23894;51.466;7.444;2023-05-07T02:57:02;8.83;;;6.90;;
38083;SDS011;23894;51.466;7.444;2023-05-07T02:59:03;8.60;;;6.68;;
38083;SDS011;23894;51.466;7.444;2023-05-07T03:01:05;9.77;;;7.03;;
38083;SDS011;23894;51.466;7.444;2023-05-07T03:03:07;9.40;;;6.80;;
38083;SDS011;23894;51.466;7.444;2023-05-07T03:05:11;8.95;;;6.90;;
38083;SDS011;23894;51.466;7.444;2023-05-07T03:07:13;8.50;;;6.90;;
38083;SDS011;23894;51.466;7.444;2023-05-07T03:09:17;8.57;;;6.82;;
38083;SDS011;23894;51.466;7.444;2023-05-07T03:11:19;8.90;;;7.10;;
38083;SDS011;23894;51.466;7.444;2023-05-07T03:13:20;9.40;;;7.00;;
38083;SDS011;23894;51.466;7.444;2023-05-07T03:15:21;9.30;;;6.90;;
38083;SDS011;23894;51.466;7.444;2023-05-07T03:17:22;9.90;;;6.82;;
38083;SDS011;23894;51.466;7.444;2023-05-07T03:19:24;18.88;;;7.43;;
38083;SDS011;23894;51.466;7.444;2023-05-07T03:21:28;7.95;;;5.82;;
38083;SDS011;23894;51.466;7.444;2023-05-07T03:23:29;7.20;;;5.68;;
38083;SDS011;23894;51.466;7.444;2023-05-07T03:25:32;7.93;;;6.20;;
38083;SDS011;23894;51.466;7.444;2023-05-07T03:27:33;7.75;;;6.50;;
38083;SDS011;23894;51.466;7.444;2023-05-07T03:29:34;9.00;;;7.20;;
38083;SDS011;23894;51.466;7.444;2023-05-07T03:31:35;8.77;;;7.05;;
38083;SDS011;23894;51.466;7.444;2023-05-07T03:33:37;8.63;;;7.30;;
38083;SDS011;23894;51.466;7.444;2023-05-07T03:35:39;8.48;;;6.60;;
38083;SDS011;23894;51.466;7.444;2023-05-07T03:37:42;8.40;;;5.57;;
38083;SDS011;23894;51.466;7.444;2023-05-07T03:39:43;6.70;;;5.50;;
38083;SDS011;23894;51.466;7.444;2023-05-07T03:41:44;7.63;;;5.80;;
38083;SDS011;23894;51.466;7.444;2023-05-07T03:43:47;8.15;;;6.53;;
38083;SDS011;23894;51.466;7.444;2023-05-07T03:45:49;8.75;;;6.50;;
38083;SDS011;23894;51.466;7.444;2023-05-07T03:47:52;8.40;;;6.10;;
38083;SDS011;23894;51.466;7.444;2023-05-07T03:49:55;8.60;;;6.70;;
38083;SDS011;23894;51.466;7.444;2023-05-07T03:51:56;9.60;;;6.70;;
38083;SDS011;23894;51.466;7.444;2023-05-07T03:53:57;9.95;;;6.90;;
38083;SDS011;23894;51.466;7.444;2023-05-07T03:55:58;8.52;;;6.30;;
38083;SDS011;23894;51.466;7.444;2023-05-07T03:58:00;8.40;;;6.85;;
38083;SDS011;23894;51.466;7.444;2023-05-07T04:00:02;8.43;;;6.82;;
38083;SDS011;23894;51.466;7.444;2023-05-07T04:02:05;8.65;;;6.13;;
38083;SDS011;23894;51.466;7.444;2023-05-07T04:04:08;7.40;;;6.03;;
38083;SDS011;23894;51.466;7.444;2023-05-07T04:06:09;7.20;;;5.78;;
38083;SDS011;23894;51.466;7.444;2023-05-07T04:08:10;9.60;;;6.30;;
38083;SDS011;23894;51.466;7.444;2023-05-07T04:10:13;9.35;;;6.55;;
38083;SDS011;23894;51.466;7.444;2023-05-07T04:12:17;10.07;;;6.60;;
38083;SDS011;23894;51.466;7.444;2023-05-07T04:14:18;8.55;;;6.32;;
38083;SDS011;23894;51.466;7.444;2023-05-07T04:16:20;7.85;;;5.68;;
38083;SDS011;23894;51.466;7.444;2023-05-07T04:18:22;7.72;;;5.45;;
38083;SDS011;23894;51.466;7.444;2023-05-07T04:20:23;7.32;;;5.30;;
38083;SDS011;23894;51.466;7.444;2023-05-07T04:22:24;9.00;;;6.10;;
38083;SDS011;23894;51.466;7.444;2023-05-07T04:24:25;9.35;;;5.93;;
38083;SDS011;23894;51.466;7.444;2023-05-07T04:26:26;8.73;;;6.10;;
38083;SDS011;23894;51.466;7.444;2023-05-07T04:28:28;9.77;;;8.40;;
38083;SDS011;23894;51.466;7.444;2023-05-07T04:30:30;10.60;;;7.57;;
38083;SDS011;23894;51.466;7.444;2023-05-07T04:32:31;12.50;;;8.50;;
38083;SDS011;23894;51.466;7.444;2023-05-07T04:34:33;11.70;;;8.85;;
38083;SDS011;23894;51.466;7.444;2023-05-07T04:36:35;11.27;;;7.10;;
38083;SDS011;23894;51.466;7.444;2023-05-07T04:38:36;9.93;;;7.35;;
38083;SDS011;23894;51.466;7.444;2023-05-07T04:40:39;10.20;;;6.97;;
38083;SDS011;23894;51.466;7.444;2023-05-07T04:42:40;10.07;;;7.05;;
38083;SDS011;23894;51.466;7.444;2023-05-07T04:44:41;8.98;;;7.38;;
38083;SDS011;23894;51.466;7.444;2023-05-07T04:46:44;9.80;;;6.85;;
38083;SDS011;23894;51.466;7.444;2023-05-07T04:48:46;8.23;;;6.82;;
38083;SDS011;23894;51.466;7.444;2023-05-07T04:50:47;8.32;;;6.60;;
38083;SDS011;23894;51.466;7.444;2023-05-07T04:52:49;7.68;;;6.25;;
38083;SDS011;23894;51.466;7.444;2023-05-07T04:54:50;9.60;;;7.10;;
38083;SDS011;23894;51.466;7.444;2023-05-07T04:56:52;10.02;;;6.90;;
38083;SDS011;23894;51.466;7.444;2023-05-07T04:58:53;9.45;;;6.05;;
38083;SDS011;23894;51.466;7.444;2023-05-07T05:00:54;7.97;;;5.80;;
38083;SDS011;23894;51.466;7.444;2023-05-07T05:02:56;7.85;;;5.97;;
38083;SDS011;23894;51.466;7.444;2023-05-07T05:04:57;8.90;;;6.40;;
38083;SDS011;23894;51.466;7.444;2023-05-07T05:06:59;10.38;;;7.95;;
38083;SDS011;23894;51.466;7.444;2023-05-07T05:09:00;10.82;;;7.88;;
38083;SDS011;23894;51.466;7.444;2023-05-07T05:11:01;10.77;;;8.50;;
38083;SDS011;23894;51.466;7.444;2023-05-07T05:13:03;12.55;;;10.00;;
38083;SDS011;23894;51.466;7.444;2023-05-07T05:15:06;11.55;;;9.75;;
38083;SDS011;23894;51.466;7.444;2023-05-07T05:17:07;11.60;;;10.40;;
38083;SDS011;23894;51.466;7.444;2023-05-07T05:19:08;11.70;;;10.45;;
38083;SDS011;23894;51.466;7.444;2023-05-07T05:21:10;12.52;;;11.00;;
38083;SDS011;23894;51.466;7.444;2023-05-07T05:23:11;10.93;;;9.82;;
38083;SDS011;23894;51.466;7.444;2023-05-07T05:25:14;12.85;;;10.55;;
38083;SDS011;23894;51.466;7.444;2023-05-07T05:27:20;11.52;;;10.07;;
38083;SDS011;23894;51.466;7.444;2023-05-07T05:29:21;11.98;;;10.15;;
38083;SDS011;23894;51.466;7.444;2023-05-07T05:31:22;12.55;;;10.18;;
38083;SDS011;23894;51.466;7.444;2023-05-07T05:33:25;10.93;;;9.13;;
38083;SDS011;23894;51.466;7.444;2023-05-07T05:35:26;10.35;;;9.25;;
38083;SDS011;23894;51.466;7.444;2023-05-07T05:37:27;10.75;;;8.82;;
38083;SDS011;23894;51.466;7.444;2023-05-07T05:39:30;10.23;;;8.80;;
38083;SDS011;23894;51.466;7.444;2023-05-07T05:41:32;10.02;;;8.30;;
38083;SDS011;23894;51.466;7.444;2023-05-07T05:43:33;9.63;;;8.20;;
38083;SDS011;23894;51.466;7.444;2023-05-07T05:45:34;9.50;;;8.38;;
38083;SDS011;23894;51.466;7.444;2023-05-07T05:47:36;9.75;;;8.10;;
38083;SDS011;23894;51.466;7.444;2023-05-07T05:49:39;9.93;;;6.80;;
38083;SDS011;23894;51.466;7.444;2023-05-07T05:51:40;8.75;;;6.75;;
38083;SDS011;23894;51.466;7.444;2023-05-07T05:53:41;9.05;;;7.50;;
38083;SDS011;23894;51.466;7.444;2023-05-07T05:55:42;9.23;;;7.55;;
38083;SDS011;23894;51.466;7.444;2023-05-07T05:57:43;7.88;;;6.47;;
38083;SDS011;23894;51.466;7.444;2023-05-07T05:59:44;8.68;;;6.57;;
38083;SDS011;23894;51.466;7.444;2023-05-07T06:01:47;8.77;;;6.50;;
38083;SDS011;23894;51.466;7.444;2023-05-07T06:03:48;8.18;;;7.10;;
38083;SDS011;23894;51.466;7.444;2023-05-07T06:05:49;9.73;;;6.80;;
38083;SDS011;23894;51.466;7.444;2023-05-07T06:07:50;8.27;;;6.43;;
38083;SDS011;23894;51.466;7.444;2023-05-07T06:09:52;8.77;;;6.07;;
38083;SDS011;23894;51.466;7.444;2023-05-07T06:11:56;7.97;;;5.20;;
38083;SDS011;23894;51.466;7.444;2023-05-07T06:13:58;8.25;;;5.47;;
38083;SDS011;23894;51.466;7.444;2023-05-07T06:16:00;8.55;;;5.05;;
38083;SDS011;23894;51.466;7.444;2023-05-07T06:18:01;7.60;;;4.93;;
38083;SDS011;23894;51.466;7.444;2023-05-07T06:20:02;6.65;;;4.40;;
38083;SDS011;23894;51.466;7.444;2023-05-07T06:22:03;7.70;;;5.00;;
38083;SDS011;23894;51.466;7.444;2023-05-07T06:24:05;7.05;;;4.72;;
38083;SDS011;23894;51.466;7.444;2023-05-07T06:26:07;7.43;;;4.47;;
38083;SDS011;23894;51.466;7.444;2023-05-07T06:28:08;7.27;;;4.70;;
38083;SDS011;23894;51.466;7.444;2023-05-07T06:30:11;6.78;;;4.45;;
38083;SDS011;23894;51.466;7.444;2023-05-07T06:32:12;6.55;;;3.83;;
38083;SDS011;23894;51.466;7.444;2023-05-07T06:34:16;7.05;;;3.75;;
38083;SDS011;23894;51.466;7.444;2023-05-07T06:36:17;6.60;;;4.10;;
38083;SDS011;23894;51.466;7.444;2023-05-07T06:38:18;6.35;;;3.60;;
38083;SDS011;23894;51.466;7.444;2023-05-07T06:40:20;6.05;;;3.53;;
38083;SDS011;23894;51.466;7.444;2023-05-07T06:42:24;6.55;;;3.50;;
38083;SDS011;23894;51.466;7.444;2023-05-07T06:44:35;6.22;;;3.30;;
38083;SDS011;23894;51.466;7.444;2023-05-07T06:46:36;5.82;;;3.65;;
38083;SDS011;23894;51.466;7.444;2023-05-07T06:48:39;7.10;;;3.70;;
38083;SDS011;23894;51.466;7.444;2023-05-07T06:50:41;6.85;;;3.58;;
38083;SDS011;23894;51.466;7.444;2023-05-07T06:52:45;6.30;;;3.10;;
38083;SDS011;23894;51.466;7.444;2023-05-07T06:54:47;7.00;;;3.22;;
38083;SDS011;23894;51.466;7.444;2023-05-07T06:56:50;5.38;;;3.35;;
38083;SDS011;23894;51.466;7.444;2023-05-07T06:58:52;6.47;;;3.30;;
38083;SDS011;23894;51.466;7.444;2023-05-07T07:00:53;6.90;;;3.40;;
38083;SDS011;23894;51.466;7.444;2023-05-07T07:02:54;6.05;;;3.00;;
38083;SDS011;23894;51.466;7.444;2023-05-07T07:04:57;6.15;;;3.40;;
38083;SDS011;23894;51.466;7.444;2023-05-07T07:06:58;5.78;;;3.20;;
38083;SDS011;23894;51.466;7.444;2023-05-07T07:08:59;6.43;;;3.10;;
38083;SDS011;23894;51.466;7.444;2023-05-07T07:11:00;5.57;;;2.97;;
38083;SDS011;23894;51.466;7.444;2023-05-07T07:13:01;6.45;;;3.05;;
38083;SDS011;23894;51.466;7.444;2023-05-07T07:15:02;8.20;;;3.42;;
38083;SDS011;23894;51.466;7.444;2023-05-07T07:17:03;7.68;;;3.60;;
38083;SDS011;23894;51.466;7.444;2023-05-07T07:19:05;5.80;;;3.35;;
38083;SDS011;23894;51.466;7.444;2023-05-07T07:21:06;6.70;;;3.20;;
38083;SDS011;23894;51.466;7.444;2023-05-07T07:23:07;6.78;;;3.58;;
38083;SDS011;23894;51.466;7.444;2023-05-07T07:25:08;6.68;;;3.50;;
38083;SDS011;23894;51.466;7.444;2023-05-07T07:27:09;7.40;;;3.60;;
38083;SDS011;23894;51.466;7.444;2023-05-07T07:29:11;6.15;;;3.90;;
38083;SDS011;23894;51.466;7.444;2023-05-07T07:31:14;7.90;;;3.60;;
38083;SDS011;23894;51.466;7.444;2023-05-07T07:33:16;5.30;;;2.95;;
38083;SDS011;23894;51.466;7.444;2023-05-07T07:35:17;6.27;;;3.47;;
38083;SDS011;23894;51.466;7.444;2023-05-07T07:37:18;6.78;;;3.28;;
38083;SDS011;23894;51.466;7.444;2023-05-07T07:39:19;6.72;;;3.67;;
38083;SDS011;23894;51.466;7.444;2023-05-07T07:41:20;7.75;;;3.63;;
38083;SDS011;23894;51.466;7.444;2023-05-07T07:43:21;6.72;;;3.20;;
38083;SDS011;23894;51.466;7.444;2023-05-07T07:45:22;7.37;;;4.10;;
38083;SDS011;23894;51.466;7.444;2023-05-07T07:47:25;6.85;;;3.60;;
38083;SDS011;23894;51.466;7.444;2023-05-07T07:49:28;6.17;;;3.20;;
38083;SDS011;23894;51.466;7.444;2023-05-07T07:51:29;5.80;;;3.20;;
38083;SDS011;23894;51.466;7.444;2023-05-07T07:53:30;7.23;;;3.60;;
38083;SDS011;23894;51.466;7.444;2023-05-07T07:55:37;6.63;;;3.80;;
38083;SDS011;23894;51.466;7.444;2023-05-07T07:57:39;6.28;;;3.72;;
38083;SDS011;23894;51.466;7.444;2023-05-07T07:59:40;6.18;;;3.65;;
38083;SDS011;23894;51.466;7.444;2023-05-07T08:01:43;7.45;;;3.88;;
38083;SDS011;23894;51.466;7.444;2023-05-07T08:03:44;6.40;;;3.40;;
38083;SDS011;23894;51.466;7.444;2023-05-07T08:05:45;6.53;;;3.83;;
38083;SDS011;23894;51.466;7.444;2023-05-07T08:07:58;5.95;;;3.55;;
38083;SDS011;23894;51.466;7.444;2023-05-07T08:09:59;5.63;;;3.50;;
38083;SDS011;23894;51.466;7.444;2023-05-07T08:12:01;7.00;;;4.00;;
38083;SDS011;23894;51.466;7.444;2023-05-07T08:14:02;8.02;;;3.80;;
38083;SDS011;23894;51.466;7.444;2023-05-07T08:16:04;6.73;;;4.00;;
38083;SDS011;23894;51.466;7.444;2023-05-07T08:18:05;7.18;;;4.07;;
38083;SDS011;23894;51.466;7.444;2023-05-07T08:20:06;6.57;;;3.70;;
38083;SDS011;23894;51.466;7.444;2023-05-07T08:22:07;7.72;;;3.75;;
38083;SDS011;23894;51.466;7.444;2023-05-07T08:24:08;7.77;;;4.00;;
38083;SDS011;23894;51.466;7.444;2023-05-07T08:26:09;7.03;;;4.37;;
38083;SDS011;23894;51.466;7.444;2023-05-07T08:28:11;6.90;;;4.35;;
38083;SDS011;23894;51.466;7.444;2023-05-07T08:30:13;7.53;;;5.03;;
38083;SDS011;23894;51.466;7.444;2023-05-07T08:32:16;7.33;;;5.10;;
38083;SDS011;23894;51.466;7.444;2023-05-07T08:34:17;7.63;;;5.50;;
38083;SDS011;23894;51.466;7.444;2023-05-07T08:36:18;7.57;;;5.20;;
38083;SDS011;23894;51.466;7.444;2023-05-07T08:38:19;7.93;;;5.22;;
38083;SDS011;23894;51.466;7.444;2023-05-07T08:40:22;9.23;;;5.97;;
38083;SDS011;23894;51.466;7.444;2023-05-07T08:42:25;7.77;;;6.03;;
38083;SDS011;23894;51.466;7.444;2023-05-07T08:44:27;8.80;;;5.50;;
38083;SDS011;23894;51.466;7.444;2023-05-07T08:46:30;7.80;;;5.95;;
38083;SDS011;23894;51.466;7.444;2023-05-07T08:48:32;7.87;;;5.93;;
38083;SDS011;23894;51.466;7.444;2023-05-07T08:50:35;8.07;;;6.00;;
38083;SDS011;23894;51.466;7.444;2023-05-07T08:52:36;8.23;;;5.90;;
38083;SDS011;23894;51.466;7.444;2023-05-07T08:54:37;10.23;;;5.82;;
38083;SDS011;23894;51.466;7.444;2023-05-07T08:56:40;8.55;;;5.93;;
38083;SDS011;23894;51.466;7.444;2023-05-07T08:58:42;8.73;;;5.35;;
38083;SDS011;23894;51.466;7.444;2023-05-07T09:00:44;8.75;;;6.47;;
38083;SDS011;23894;51.466;7.444;2023-05-07T09:02:46;7.28;;;5.53;;
38083;SDS011;23894;51.466;7.444;2023-05-07T09:04:50;8.30;;;6.60;;
38083;SDS011;23894;51.466;7.444;2023-05-07T09:06:51;9.13;;;6.90;;
38083;SDS011;23894;51.466;7.444;2023-05-07T09:08:52;9.27;;;6.63;;
38083;SDS011;23894;51.466;7.444;2023-05-07T09:10:55;10.02;;;7.20;;
38083;SDS011;23894;51.466;7.444;2023-05-07T09:12:59;9.48;;;7.03;;
38083;SDS011;23894;51.466;7.444;2023-05-07T09:15:02;9.50;;;7.78;;
38083;SDS011;23894;51.466;7.444;2023-05-07T09:17:05;8.73;;;6.07;;
38083;SDS011;23894;51.466;7.444;2023-05-07T09:19:06;8.23;;;6.72;;
38083;SDS011;23894;51.466;7.444;2023-05-07T09:21:12;9.70;;;7.82;;
38083;SDS011;23894;51.466;7.444;2023-05-07T09:23:16;9.82;;;7.82;;
38083;SDS011;23894;51.466;7.444;2023-05-07T09:25:30;10.88;;;8.00;;
38083;SDS011;23894;51.466;7.444;2023-05-07T09:27:31;10.40;;;7.30;;
38083;SDS011;23894;51.466;7.444;2023-05-07T09:29:32;9.63;;;7.78;;
38083;SDS011;23894;51.466;7.444;2023-05-07T09:31:38;9.32;;;7.85;;
38083;SDS011;23894;51.466;7.444;2023-05-07T09:33:39;9.20;;;7.50;;
38083;SDS011;23894;51.466;7.444;2023-05-07T09:35:42;8.50;;;6.95;;
38083;SDS011;23894;51.466;7.444;2023-05-07T09:37:44;9.07;;;7.75;;
38083;SDS011;23894;51.466;7.444;2023-05-07T09:39:47;10.07;;;8.50;;
38083;SDS011;23894;51.466;7.444;2023-05-07T09:41:48;11.30;;;8.53;;
38083;SDS011;23894;51.466;7.444;2023-05-07T09:43:55;10.48;;;8.30;;
38083;SDS011;23894;51.466;7.444;2023-05-07T09:45:57;11.98;;;9.43;;
38083;SDS011;23894;51.466;7.444;2023-05-07T09:47:58;11.82;;;9.63;;
38083;SDS011;23894;51.466;7.444;2023-05-07T09:49:59;11.20;;;9.20;;
38083;SDS011;23894;51.466;7.444;2023-05-07T09:52:06;12.23;;;10.55;;
38083;SDS011;23894;51.466;7.444;2023-05-07T09:54:11;11.40;;;9.50;;
38083;SDS011;23894;51.466;7.444;2023-05-07T09:56:14;12.00;;;9.45;;
38083;SDS011;23894;51.466;7.444;2023-05-07T09:58:16;10.82;;;8.30;;
38083;SDS011;23894;51.466;7.444;2023-05-07T10:00:21;11.10;;;9.90;;
38083;SDS011;23894;51.466;7.444;2023-05-07T10:02:23;12.20;;;10.75;;
38083;SDS011;23894;51.466;7.444;2023-05-07T10:04:27;13.10;;;10.40;;
38083;SDS011;23894;51.466;7.444;2023-05-07T10:06:28;11.48;;;9.95;;
38083;SDS011;23894;51.466;7.444;2023-05-07T10:08:30;11.95;;;10.02;;
38083;SDS011;23894;51.466;7.444;2023-05-07T10:10:33;12.38;;;10.77;;
38083;SDS011;23894;51.466;7.444;2023-05-07T10:12:36;12.35;;;9.50;;
38083;SDS011;23894;51.466;7.444;2023-05-07T10:14:40;10.48;;;9.07;;
38083;SDS011;23894;51.466;7.444;2023-05-07T10:16:42;10.87;;;8.83;;
38083;SDS011;23894;51.466;7.444;2023-05-07T10:18:45;10.50;;;8.35;;
38083;SDS011;23894;51.466;7.444;2023-05-07T10:20:48;11.95;;;9.07;;
38083;SDS011;23894;51.466;7.444;2023-05-07T10:22:51;10.13;;;8.05;;
38083;SDS011;23894;51.466;7.444;2023-05-07T10:24:54;8.43;;;6.20;;
38083;SDS011;23894;51.466;7.444;2023-05-07T10:26:57;8.35;;;6.00;;
38083;SDS011;23894;51.466;7.444;2023-05-07T10:29:02;8.55;;;6.30;;
38083;SDS011;23894;51.466;7.444;2023-05-07T10:31:25;8.13;;;5.40;;
38083;SDS011;23894;51.466;7.444;2023-05-07T10:33:30;6.50;;;4.10;;
38083;SDS011;23894;51.466;7.444;2023-05-07T10:35:32;9.80;;;7.68;;
38083;SDS011;23894;51.466;7.444;2023-05-07T10:37:37;9.37;;;6.43;;
38083;SDS011;23894;51.466;7.444;2023-05-07T10:39:38;9.70;;;7.37;;
38083;SDS011;23894;51.466;7.444;2023-05-07T10:41:39;10.45;;;6.60;;
38083;SDS011;23894;51.466;7.444;2023-05-07T10:43:43;8.27;;;5.33;;
38083;SDS011;23894;51.466;7.444;2023-05-07T10:45:49;7.65;;;4.82;;
38083;SDS011;23894;51.466;7.444;2023-05-07T10:48:16;7.53;;;5.90;;
38083;SDS011;23894;51.466;7.444;2023-05-07T10:54:19;7.10;;;4.70;;
38083;SDS011;23894;51.466;7.444;2023-05-07T11:05:18;10.48;;;7.30;;
38083;SDS011;23894;51.466;7.444;2023-05-07T11:07:29;9.20;;;6.10;;
38083;SDS011;23894;51.466;7.444;2023-05-07T11:11:51;9.90;;;7.03;;
38083;SDS011;23894;51.466;7.444;2023-05-07T11:13:56;8.20;;;6.07;;
38083;SDS011;23894;51.466;7.444;2023-05-07T11:15:58;8.73;;;6.10;;
38083;SDS011;23894;51.466;7.444;2023-05-07T11:17:59;8.20;;;5.60;;
38083;SDS011;23894;51.466;7.444;2023-05-07T11:20:01;8.65;;;6.20;;
38083;SDS011;23894;51.466;7.444;2023-05-07T11:22:02;9.63;;;7.47;;
38083;SDS011;23894;51.466;7.444;2023-05-07T11:24:09;9.00;;;7.05;;
38083;SDS011;23894;51.466;7.444;2023-05-07T11:26:10;7.93;;;5.63;;
38083;SDS011;23894;51.466;7.444;2023-05-07T11:28:11;9.13;;;6.97;;
38083;SDS011;23894;51.466;7.444;2023-05-07T11:30:18;9.23;;;6.53;;
38083;SDS011;23894;51.466;7.444;2023-05-07T11:32:23;9.45;;;6.38;;
38083;SDS011;23894;51.466;7.444;2023-05-07T11:34:27;8.40;;;6.25;;
38083;SDS011;23894;51.466;7.444;2023-05-07T11:36:30;8.95;;;6.13;;
38083;SDS011;23894;51.466;7.444;2023-05-07T11:38:34;8.67;;;6.30;;
38083;SDS011;23894;51.466;7.444;2023-05-07T11:40:47;10.00;;;6.88;;
38083;SDS011;23894;51.466;7.444;2023-05-07T11:42:51;8.20;;;6.00;;
38083;SDS011;23894;51.466;7.444;2023-05-07T11:44:52;8.15;;;5.97;;
38083;SDS011;23894;51.466;7.444;2023-05-07T11:46:53;8.60;;;6.60;;
38083;SDS011;23894;51.466;7.444;2023-05-07T11:48:54;8.40;;;6.03;;
38083;SDS011;23894;51.466;7.444;2023-05-07T11:51:02;8.33;;;5.77;;
38083;SDS011;23894;51.466;7.444;2023-05-07T11:53:09;7.25;;;5.05;;
38083;SDS011;23894;51.466;7.444;2023-05-07T11:55:12;8.30;;;5.82;;
38083;SDS011;23894;51.466;7.444;2023-05-07T11:57:17;8.10;;;5.70;;
38083;SDS011;23894;51.466;7.444;2023-05-07T11:59:19;9.15;;;6.60;;
38083;SDS011;23894;51.466;7.444;2023-05-07T12:01:20;9.80;;;7.25;;
38083;SDS011;23894;51.466;7.444;2023-05-07T12:03:21;10.90;;;7.25;;
38083;SDS011;23894;51.466;7.444;2023-05-07T12:05:24;9.75;;;6.60;;
38083;SDS011;23894;51.466;7.444;2023-05-07T12:07:28;8.03;;;6.27;;
38083;SDS011;23894;51.466;7.444;2023-05-07T12:09:32;8.27;;;5.70;;
38083;SDS011;23894;51.466;7.444;2023-05-07T12:11:33;9.70;;;6.07;;
38083;SDS011;23894;51.466;7.444;2023-05-07T12:13:34;7.75;;;6.00;;
38083;SDS011;23894;51.466;7.444;2023-05-07T12:15:36;9.32;;;6.40;;
38083;SDS011;23894;51.466;7.444;2023-05-07T12:17:37;9.55;;;5.60;;
38083;SDS011;23894;51.466;7.444;2023-05-07T12:19:40;8.40;;;6.97;;
38083;SDS011;23894;51.466;7.444;2023-05-07T12:21:45;8.37;;;6.43;;
38083;SDS011;23894;51.466;7.444;2023-05-07T12:23:46;9.40;;;7.07;;
38083;SDS011;23894;51.466;7.444;2023-05-07T12:25:49;9.30;;;6.67;;
38083;SDS011;23894;51.466;7.444;2023-05-07T12:27:53;8.55;;;5.50;;
38083;SDS011;23894;51.466;7.444;2023-05-07T12:29:54;7.70;;;4.80;;